Ballston Spa, NY (12020)

8:35 PM EST on December 18, 2014 (GMT -0500)
Curtis Lumber CO. Inc. | Change Station
CLOSE
Current Station
Personal Weather Station
Location: Ballston Spa, NY
Elevation: 269 ft
Nearby Weather Stations

Elev 269 ft 42.97 °N, 73.84 °W | Updated 37 seconds ago

Overcast
Overcast
33.4 °F
Feels Like 33 °F
N
0.0
Wind Variable Wind from West
Gusts 11.0 mph

Today
High -- | Low -- °F
--% Chance of Precip.
Yesterday
High -- | Low -- °F
Precip. -- in
7:21 AM 4:22 PM
Waning Crescent, 11% visible
Pressure 29.96 in
Visibility 10.0 miles
Clouds Overcast 1800 ft
Windchill 33 °F
Dew Point 28 °F
Humidity 80%
Rainfall 0.02 in
Snow Depth Not available.
UV 0 out of 12
Pollen .10 out of 12
Air Quality Not available.
Flu Activity Not available.
METAR KSCH 190057Z 30010G17KT 10SM OVC018 01/M03 A2996

More Conditions Fewer Conditions

Pressure 29.96 in
Visibility 10.0 miles
Clouds Overcast 1800 ft
Windchill 33 °F
Dew Point 28 °F
Humidity 80%
Rainfall 0.02 in
Snow Depth Not available.
UV 0 out of 12
Pollen .10 out of 12
Air Quality Not available.
Flu Activity Not available.
METAR KSCH 190057Z 30010G17KT 10SM OVC018 01/M03 A2996

More Conditions Fewer Conditions

10-Day Weather Forecast

Almanac

Astronomy

Dec. 18, 2014 Rise Set
Actual Time
Civil Twilight
Nautical Twilight
Astronomical Twilight
Moon
Length of Visible Light
Length of Day
Tomorrow will be .
, % of the Moon is Illuminated

Today's Extremes

State Highs State Lows

Community

WunderPhotos

Upload Photos

1,779,032 photos uploaded!

WunderBlogs® & News

Nearby

Air Quality

  Air Quality AQ Index Pollutant
Not available.

Snow Depth

Station Depth Elevation

Earthquake Activity

City Distance Mag. Time & Date
Minimum magnitude displayed is 2.5.

Coastal Water Temperatures

Place Temperature

Nearby Weather Stations